Time;durP1;ratioP1;P1;durP2;ratioP2;P2;SDS_P1;SDS_P2;PMS_P1;PMS_P2;Temp;Humidity;BMP_temperature;BMP_pressure;BME280_temperature;BME280_humidity;BME280_pressure;Samples;Min_cycle;Max_cycle;Signal;HPM_P1;HPM_P2
2022/11/28 00:00:35;;;;;;;5.47;3.22;;;;;13.70;100752.00;;;;5010769;28;20213;-80
2022/11/28 00:03:03;;;;;;;7.63;4.75;;;;;13.80;100740.00;;;;5011151;28;20255;-80
2022/11/28 00:05:30;;;;;;;5.55;3.65;;;;;13.80;100742.00;;;;5020905;28;20200;-80
2022/11/28 00:07:57;;;;;;;5.22;3.92;;;;;13.80;100739.00;;;;5019550;28;20747;-80
2022/11/28 00:10:24;;;;;;;5.78;3.42;;;;;13.80;100732.00;;;;5016603;28;20223;-80
2022/11/28 00:12:52;;;;;;;6.57;3.35;;;;;13.80;100734.00;;;;5028212;28;20200;-80
2022/11/28 00:15:19;;;;;;;5.07;3.22;;;;;13.80;100731.00;;;;5031853;28;20219;-80
2022/11/28 00:17:48;;;;;;;5.60;4.07;;;;;13.80;100737.00;;;;5027102;28;20690;-80
2022/11/28 00:20:15;;;;;;;4.03;3.38;;;;;13.80;100730.00;;;;5009991;28;20204;-80
2022/11/28 00:22:42;;;;;;;4.57;3.70;;;;;13.80;100734.00;;;;5012397;28;20204;-80
2022/11/28 00:25:10;;;;;;;4.32;3.75;;;;;13.80;100729.00;;;;5020554;28;20303;-80
2022/11/28 00:27:37;;;;;;;3.70;3.30;;;;;13.90;100733.00;;;;5010608;28;20216;-80
2022/11/28 00:30:05;;;;;;;3.53;3.03;;;;;13.90;100729.00;;;;5015683;28;20200;-80
2022/11/28 00:32:33;;;;;;;4.40;3.42;;;;;13.90;100725.00;;;;5023425;28;20540;-79
2022/11/28 00:35:01;;;;;;;4.60;3.83;;;;;13.90;100720.00;;;;5022982;28;20573;-80
2022/11/28 00:37:28;;;;;;;6.47;3.47;;;;;13.90;100719.00;;;;5015163;28;20231;-80
2022/11/28 00:39:56;;;;;;;5.13;3.47;;;;;13.90;100713.00;;;;5011283;28;20201;-80
2022/11/28 00:42:23;;;;;;;7.10;3.33;;;;;13.90;100719.00;;;;5009905;28;20200;-80
2022/11/28 00:44:50;;;;;;;4.70;2.97;;;;;13.90;100714.00;;;;5025310;28;20235;-80
2022/11/28 00:47:17;;;;;;;3.47;2.83;;;;;13.90;100713.00;;;;5017272;28;20204;-80
2022/11/28 00:49:45;;;;;;;6.38;3.70;;;;;13.90;100715.00;;;;5014939;28;20203;-80
2022/11/28 00:52:13;;;;;;;5.53;3.20;;;;;13.90;100709.00;;;;5018223;28;20193;-80
2022/11/28 00:54:41;;;;;;;4.25;3.22;;;;;13.90;100701.00;;;;5030543;28;20555;-80
2022/11/28 00:57:08;;;;;;;4.63;2.92;;;;;13.90;100703.00;;;;5016427;28;20205;-80
2022/11/28 00:59:35;;;;;;;4.18;2.92;;;;;14.00;100704.00;;;;5012273;28;20216;-81
2022/11/28 01:02:02;;;;;;;3.53;2.95;;;;;14.00;100700.00;;;;5023569;28;20207;-80
2022/11/28 01:04:30;;;;;;;3.03;2.53;;;;;14.00;100700.00;;;;5027742;28;20229;-80
2022/11/28 01:06:57;;;;;;;3.72;2.88;;;;;14.00;100697.00;;;;5011859;28;20192;-80
2022/11/28 01:09:26;;;;;;;3.72;3.15;;;;;14.00;100691.00;;;;5020276;28;20232;-80
2022/11/28 01:11:54;;;;;;;3.30;2.83;;;;;14.00;100676.00;;;;5022649;28;20208;-80
2022/11/28 01:14:23;;;;;;;3.38;2.65;;;;;14.00;100680.00;;;;5030153;28;20208;-80
2022/11/28 01:16:50;;;;;;;6.18;3.15;;;;;14.00;100681.00;;;;5029888;28;20228;-80
2022/11/28 01:19:17;;;;;;;4.03;2.85;;;;;14.00;100682.00;;;;5030052;28;20219;-80
2022/11/28 01:21:45;;;;;;;4.30;2.85;;;;;14.10;100679.00;;;;5015838;28;20205;-80
2022/11/28 01:24:12;;;;;;;3.95;2.63;;;;;14.10;100667.00;;;;5025541;28;20223;-80
2022/11/28 01:26:42;;;;;;;5.15;2.75;;;;;14.10;100667.00;;;;5011010;28;20200;-80
2022/11/28 01:29:10;;;;;;;3.67;2.90;;;;;14.10;100661.00;;;;5009453;28;20212;-80
2022/11/28 01:31:38;;;;;;;5.07;3.85;;;;;14.10;100667.00;;;;5012823;28;20398;-80
2022/11/28 01:34:06;;;;;;;4.20;2.60;;;;;14.10;100664.00;;;;5012733;28;20208;-79
2022/11/28 01:36:33;;;;;;;3.05;2.47;;;;;14.10;100668.00;;;;5009288;28;20215;-80
2022/11/28 01:39:00;;;;;;;3.72;2.78;;;;;14.10;100672.00;;;;5009303;28;20197;-79
2022/11/28 01:41:28;;;;;;;4.95;3.00;;;;;14.10;100668.00;;;;5010918;28;20197;-80
2022/11/28 01:44:07;;;;;;;3.78;2.67;;;;;14.10;100674.00;;;;5012881;28;20216;-80
2022/11/28 01:46:36;;;;;;;3.55;2.47;;;;;14.20;100681.00;;;;5009794;28;20651;-80
2022/11/28 01:49:09;;;;;;;3.05;2.72;;;;;14.20;100681.00;;;;5012461;28;20596;-80
2022/11/28 01:51:36;;;;;;;3.10;2.60;;;;;14.20;100683.00;;;;5011010;28;20209;-80
2022/11/28 01:54:04;;;;;;;3.42;3.10;;;;;14.20;100675.00;;;;5021183;28;20196;-80
2022/11/28 01:56:41;;;;;;;3.58;2.70;;;;;14.20;100674.00;;;;5016574;28;20192;-80
2022/11/28 01:59:13;;;;;;;3.42;2.30;;;;;14.20;100662.00;;;;5010654;28;20220;-80
2022/11/28 02:01:42;;;;;;;3.22;2.67;;;;;14.20;100678.00;;;;5014741;28;20391;-80
2022/11/28 02:04:10;;;;;;;3.05;2.40;;;;;14.20;100682.00;;;;5015314;28;20583;-80
2022/11/28 02:06:37;;;;;;;4.03;2.45;;;;;14.30;100668.00;;;;5014707;28;20647;-80
2022/11/28 02:09:09;;;;;;;3.55;2.50;;;;;14.30;100669.00;;;;5015377;28;20197;-80
2022/11/28 02:12:07;;;;;;;3.95;2.45;;;;;14.20;100668.00;;;;5009086;28;20200;-81
2022/11/28 02:15:06;;;;;;;4.00;2.00;;;;;14.20;100666.00;;;;5014345;28;20200;-80
2022/11/28 02:17:43;;;;;;;4.55;2.45;;;;;14.30;100659.00;;;;5013053;28;20207;-80
2022/11/28 02:20:50;;;;;;;5.50;2.55;;;;;14.20;100665.00;;;;5016429;28;20200;-80
2022/11/28 02:23:23;;;;;;;2.42;2.00;;;;;14.30;100660.00;;;;5013886;28;20204;-80
2022/11/28 02:26:36;;;;;;;3.47;2.70;;;;;14.30;100664.00;;;;5010971;28;20236;-80
2022/11/28 02:29:29;;;;;;;5.95;2.63;;;;;14.30;100662.00;;;;4912574;29;20204;-80
2022/11/28 02:32:13;;;;;;;4.53;2.53;;;;;14.30;100660.00;;;;4997885;28;20196;-80
2022/11/28 02:34:48;;;;;;;4.97;2.70;;;;;14.30;100663.00;;;;5010197;28;20244;-80
2022/11/28 02:37:22;;;;;;;4.18;2.13;;;;;14.30;100655.00;;;;5024178;28;20196;-80
2022/11/28 02:40:03;;;;;;;2.50;2.30;;;;;14.30;100658.00;;;;5009469;28;20658;-80
2022/11/28 02:42:38;;;;;;;2.70;2.28;;;;;14.40;100657.00;;;;5020951;28;20200;-81
2022/11/28 02:45:10;;;;;;;3.60;2.47;;;;;14.40;100662.00;;;;5019953;28;20230;-79
2022/11/28 02:47:43;;;;;;;3.42;2.25;;;;;14.40;100656.00;;;;5011775;28;20206;-81
2022/11/28 02:50:15;;;;;;;4.85;2.70;;;;;14.40;100664.00;;;;5025198;28;20199;-78
2022/11/28 02:52:45;;;;;;;4.03;2.38;;;;;14.40;100656.00;;;;5024340;28;20215;-78
2022/11/28 02:55:14;;;;;;;2.83;2.08;;;;;14.40;100656.00;;;;5015543;28;20193;-79
2022/11/28 02:57:46;;;;;;;2.58;2.30;;;;;14.40;100658.00;;;;5008255;28;20224;-79
2022/11/28 03:00:29;;;;;;;2.92;2.30;;;;;14.40;100656.00;;;;5013180;28;20673;-79
2022/11/28 03:03:10;;;;;;;5.68;2.25;;;;;14.40;100653.00;;;;5014016;28;20612;-79
2022/11/28 03:05:46;;;;;;;2.95;2.25;;;;;14.40;100659.00;;;;5009474;28;20221;-79
2022/11/28 03:08:31;;;;;;;5.15;2.10;;;;;14.40;100659.00;;;;5017306;28;20207;-79
2022/11/28 03:11:04;;;;;;;2.55;1.80;;;;;14.40;100650.00;;;;5028440;28;20203;-79
2022/11/28 03:13:41;;;;;;;3.28;2.15;;;;;14.40;100652.00;;;;5015941;28;20189;-79
2022/11/28 03:16:19;;;;;;;4.85;2.15;;;;;14.40;100649.00;;;;5009263;28;20216;-79
2022/11/28 03:18:56;;;;;;;4.78;2.20;;;;;14.40;100655.00;;;;5008389;28;20197;-79
2022/11/28 03:21:32;;;;;;;3.95;2.75;;;;;14.40;100652.00;;;;5011370;28;20601;-80
2022/11/28 03:24:04;;;;;;;3.17;2.35;;;;;14.50;100657.00;;;;5020936;28;20208;-79
2022/11/28 03:26:43;;;;;;;4.40;2.45;;;;;14.40;100660.00;;;;5008500;28;20396;-79
2022/11/28 03:29:18;;;;;;;3.63;2.33;;;;;14.40;100655.00;;;;5007760;28;20196;-79
2022/11/28 03:31:51;;;;;;;2.88;2.58;;;;;14.50;100659.00;;;;5008857;28;20196;-79
2022/11/28 03:34:23;;;;;;;2.40;2.03;;;;;14.50;100658.00;;;;5008217;28;20231;-79
2022/11/28 03:36:56;;;;;;;3.08;2.08;;;;;14.50;100655.00;;;;5012757;28;20204;-79
2022/11/28 03:39:29;;;;;;;3.42;2.53;;;;;14.50;100655.00;;;;5018232;28;20209;-79
2022/11/28 03:42:03;;;;;;;3.08;2.58;;;;;14.40;100650.00;;;;5015990;28;20673;-79
2022/11/28 03:44:37;;;;;;;3.03;2.03;;;;;14.50;100651.00;;;;5022561;28;20707;-79
2022/11/28 03:47:06;;;;;;;2.65;2.20;;;;;14.50;100652.00;;;;5011860;28;20901;-79
2022/11/28 03:49:40;;;;;;;3.20;2.22;;;;;14.40;100655.00;;;;5019491;28;20290;-79
2022/11/28 03:52:11;;;;;;;4.13;2.35;;;;;14.50;100655.00;;;;5013520;28;20204;-79
2022/11/28 03:54:47;;;;;;;4.40;2.55;;;;;14.50;100659.00;;;;5013924;28;20740;-79
2022/11/28 03:57:21;;;;;;;2.95;2.42;;;;;14.50;100657.00;;;;5012290;28;20728;-79
2022/11/28 03:59:51;;;;;;;3.45;2.75;;;;;14.50;100663.00;;;;5009322;28;20197;-79
2022/11/28 04:02:25;;;;;;;5.32;2.75;;;;;14.50;100665.00;;;;5011052;28;20204;-79
2022/11/28 04:05:00;;;;;;;2.92;2.45;;;;;14.50;100659.00;;;;5013390;28;20229;-79
2022/11/28 04:07:34;;;;;;;3.22;2.58;;;;;14.50;100657.00;;;;5011599;28;20947;-79
2022/11/28 04:10:06;;;;;;;4.50;2.47;;;;;14.50;100658.00;;;;5014689;28;20212;-79
2022/11/28 04:12:45;;;;;;;3.80;2.35;;;;;14.50;100660.00;;;;5011095;28;20193;-79
2022/11/28 04:15:17;;;;;;;4.43;3.10;;;;;14.50;100658.00;;;;5013183;28;20207;-79
2022/11/28 04:17:51;;;;;;;3.22;2.55;;;;;14.50;100660.00;;;;5010240;28;20237;-79
2022/11/28 04:20:29;;;;;;;2.80;2.17;;;;;14.50;100661.00;;;;5013397;28;20192;-79
2022/11/28 04:23:02;;;;;;;3.63;2.58;;;;;14.50;100664.00;;;;5008247;28;20576;-79
2022/11/28 04:25:34;;;;;;;2.95;2.15;;;;;14.60;100668.00;;;;5009697;28;20224;-79
2022/11/28 04:28:06;;;;;;;3.67;2.88;;;;;14.60;100666.00;;;;5013832;28;20205;-79
2022/11/28 04:30:34;;;;;;;5.78;3.15;;;;;14.60;100670.00;;;;5011535;28;20200;-79
2022/11/28 04:33:07;;;;;;;3.47;2.30;;;;;14.60;100668.00;;;;5012796;28;20201;-79
2022/11/28 04:35:41;;;;;;;4.13;2.38;;;;;14.60;100662.00;;;;5012355;28;20236;-79
2022/11/28 04:38:11;;;;;;;3.53;2.85;;;;;14.60;100666.00;;;;5012210;28;20213;-79
2022/11/28 04:40:44;;;;;;;3.17;2.83;;;;;14.60;100656.00;;;;5009260;28;20212;-79
2022/11/28 04:43:18;;;;;;;5.13;3.13;;;;;14.60;100661.00;;;;5014777;28;20193;-79
2022/11/28 04:45:50;;;;;;;3.28;2.83;;;;;14.60;100658.00;;;;5011526;28;20775;-79
2022/11/28 04:48:18;;;;;;;3.55;2.70;;;;;14.60;100658.00;;;;5021703;28;20212;-79
2022/11/28 04:50:52;;;;;;;3.20;2.80;;;;;14.60;100667.00;;;;5021874;28;20200;-79
2022/11/28 04:53:30;;;;;;;3.75;2.90;;;;;14.60;100664.00;;;;5018373;28;20563;-79
2022/11/28 04:56:02;;;;;;;3.25;2.80;;;;;14.60;100666.00;;;;5010286;28;20219;-79
2022/11/28 04:58:33;;;;;;;3.40;2.88;;;;;14.60;100666.00;;;;5022516;28;20216;-79
2022/11/28 05:01:04;;;;;;;3.10;2.80;;;;;14.70;100667.00;;;;5021871;28;20581;-79
2022/11/28 05:03:32;;;;;;;3.90;2.72;;;;;14.70;100667.00;;;;5024930;28;20200;-79
2022/11/28 05:06:01;;;;;;;3.80;3.00;;;;;14.70;100674.00;;;;5022740;28;20597;-79
2022/11/28 05:08:29;;;;;;;3.55;3.03;;;;;14.70;100669.00;;;;5013525;28;20574;-79
2022/11/28 05:10:56;;;;;;;3.45;3.00;;;;;14.70;100677.00;;;;5028543;28;20572;-79
2022/11/28 05:13:23;;;;;;;4.38;2.88;;;;;14.70;100677.00;;;;5018072;28;20573;-79
2022/11/28 05:15:50;;;;;;;8.05;3.13;;;;;14.60;100683.00;;;;5011106;28;20197;-79
2022/11/28 05:18:18;;;;;;;3.97;3.10;;;;;14.70;100681.00;;;;5029804;28;20205;-79
2022/11/28 05:20:45;;;;;;;4.55;3.45;;;;;14.70;100681.00;;;;5030565;28;20598;-79
2022/11/28 05:23:13;;;;;;;3.70;2.92;;;;;14.60;100684.00;;;;5028347;28;20197;-79
2022/11/28 05:25:41;;;;;;;4.18;2.88;;;;;14.70;100687.00;;;;5009605;28;20412;-79
2022/11/28 05:28:10;;;;;;;5.05;2.75;;;;;14.70;100681.00;;;;5008353;28;20208;-79
2022/11/28 05:30:37;;;;;;;3.55;2.83;;;;;14.70;100691.00;;;;5009821;28;20204;-78
2022/11/28 05:33:04;;;;;;;3.95;3.08;;;;;14.60;100689.00;;;;5014339;28;20213;-80
2022/11/28 05:35:31;;;;;;;3.17;2.60;;;;;14.60;100691.00;;;;4993248;28;1054805;-79
2022/11/28 05:37:59;;;;;;;4.70;3.10;;;;;14.60;100697.00;;;;5031015;28;20189;-80
2022/11/28 05:40:27;;;;;;;3.83;2.83;;;;;14.60;100693.00;;;;5026585;28;20204;-80
2022/11/28 05:42:55;;;;;;;3.25;2.72;;;;;14.70;100694.00;;;;5011040;28;20201;-80
2022/11/28 05:45:22;;;;;;;3.65;3.13;;;;;14.70;100696.00;;;;5010674;28;20243;-79
2022/11/28 05:47:49;;;;;;;3.53;3.00;;;;;14.70;100694.00;;;;5011499;28;20212;-80
2022/11/28 05:50:16;;;;;;;3.97;2.85;;;;;14.70;100694.00;;;;5015551;28;20510;-80
2022/11/28 05:52:44;;;;;;;4.05;3.08;;;;;14.70;100693.00;;;;5013674;28;20212;-80
2022/11/28 05:55:11;;;;;;;4.18;3.08;;;;;14.70;100698.00;;;;5008299;28;20205;-79
2022/11/28 05:57:39;;;;;;;3.28;2.55;;;;;14.70;100688.00;;;;5009080;28;20294;-80
2022/11/28 06:00:08;;;;;;;3.92;3.13;;;;;14.70;100691.00;;;;5007646;28;20201;-79
2022/11/28 06:02:36;;;;;;;3.15;2.85;;;;;14.70;100699.00;;;;5006332;28;20200;-80
2022/11/28 06:05:03;;;;;;;4.32;3.20;;;;;14.70;100703.00;;;;5011506;28;20211;-80
2022/11/28 06:07:30;;;;;;;3.90;3.17;;;;;14.70;100699.00;;;;5008715;28;20208;-79
2022/11/28 06:09:58;;;;;;;3.47;3.17;;;;;14.70;100701.00;;;;5007955;28;20772;-80
2022/11/28 06:12:25;;;;;;;2.85;2.42;;;;;14.70;100701.00;;;;5009837;28;21022;-81
2022/11/28 06:14:54;;;;;;;3.70;3.35;;;;;14.70;100694.00;;;;5012794;28;20207;-80
2022/11/28 06:17:21;;;;;;;3.10;2.80;;;;;14.70;100698.00;;;;5010949;28;20200;-81
2022/11/28 06:19:48;;;;;;;3.25;2.92;;;;;14.70;100693.00;;;;5013054;28;20215;-80
2022/11/28 06:22:16;;;;;;;3.50;3.08;;;;;14.70;100692.00;;;;5009243;28;20207;-81
2022/11/28 06:24:43;;;;;;;3.35;3.05;;;;;14.70;100696.00;;;;5012635;28;20204;-80
2022/11/28 06:27:10;;;;;;;3.50;3.13;;;;;14.70;100702.00;;;;5013014;28;20232;-80
2022/11/28 06:29:38;;;;;;;2.63;2.38;;;;;14.70;100693.00;;;;5012568;28;20197;-80
2022/11/28 06:32:06;;;;;;;3.53;3.22;;;;;14.70;100699.00;;;;5011262;28;20201;-80
2022/11/28 06:34:34;;;;;;;4.00;3.03;;;;;14.70;100695.00;;;;5023030;28;20225;-83
2022/11/28 06:37:01;;;;;;;3.50;2.80;;;;;14.70;100699.00;;;;5015293;28;20208;-83
2022/11/28 06:39:28;;;;;;;4.40;2.95;;;;;14.70;100707.00;;;;5010814;28;20581;-84
2022/11/28 06:41:56;;;;;;;3.35;3.05;;;;;14.70;100710.00;;;;5014955;28;20196;-80
2022/11/28 06:44:23;;;;;;;3.53;3.00;;;;;14.80;100710.00;;;;5009331;28;20765;-81
2022/11/28 06:46:50;;;;;;;3.13;2.83;;;;;14.80;100709.00;;;;5017826;28;20717;-82
2022/11/28 06:49:19;;;;;;;5.00;4.20;;;;;14.70;100704.00;;;;5012749;28;21372;-82
2022/11/28 06:51:46;;;;;;;3.60;3.30;;;;;14.80;100707.00;;;;5021182;28;20208;-80
2022/11/28 06:54:14;;;;;;;3.60;3.30;;;;;14.80;100716.00;;;;5024430;28;20211;-80
2022/11/28 06:56:41;;;;;;;3.75;3.30;;;;;14.80;100717.00;;;;5014986;28;20455;-80
2022/11/28 06:59:12;;;;;;;6.72;5.35;;;;;14.70;100718.00;;;;5008813;28;20468;-79
2022/11/28 07:01:39;;;;;;;5.05;4.05;;;;;14.80;100723.00;;;;5008107;28;20266;-79
2022/11/28 07:04:06;;;;;;;4.38;3.88;;;;;14.90;100728.00;;;;5008878;28;20216;-80
2022/11/28 07:06:35;;;;;;;3.55;3.25;;;;;14.90;100734.00;;;;5015113;28;20229;-80
2022/11/28 07:09:03;;;;;;;3.92;3.50;;;;;14.90;100734.00;;;;5027547;28;20218;-80
2022/11/28 07:11:32;;;;;;;4.00;3.60;;;;;14.90;100729.00;;;;5018844;28;20199;-80
2022/11/28 07:14:01;;;;;;;4.47;4.00;;;;;14.90;100737.00;;;;5008737;28;20283;-80
2022/11/28 07:16:30;;;;;;;4.82;3.78;;;;;14.90;100729.00;;;;5008299;28;20205;-81
2022/11/28 07:18:58;;;;;;;3.78;3.22;;;;;14.90;100740.00;;;;5019728;28;20207;-80
2022/11/28 07:21:26;;;;;;;6.30;4.38;;;;;14.90;100732.00;;;;5020714;28;20247;-81
2022/11/28 07:23:55;;;;;;;4.07;3.67;;;;;14.90;100738.00;;;;5010980;28;20236;-80
2022/11/28 07:26:22;;;;;;;4.65;3.88;;;;;14.90;100728.00;;;;5007680;28;20812;-80
2022/11/28 07:28:50;;;;;;;4.00;3.67;;;;;14.90;100742.00;;;;5015930;28;20205;-80
2022/11/28 07:31:19;;;;;;;5.03;3.92;;;;;14.90;100743.00;;;;5007292;28;20205;-79
2022/11/28 07:33:48;;;;;;;6.70;4.05;;;;;14.90;100748.00;;;;5017633;28;20203;-80
2022/11/28 07:36:18;;;;;;;3.92;3.53;;;;;14.90;100751.00;;;;5019574;28;21880;-80
2022/11/28 07:38:49;;;;;;;5.63;4.18;;;;;14.90;100753.00;;;;5007879;28;20200;-80
2022/11/28 07:41:18;;;;;;;5.50;4.32;;;;;14.90;100763.00;;;;5011599;28;20216;-80
2022/11/28 07:43:47;;;;;;;5.38;4.35;;;;;14.90;100756.00;;;;5007180;28;20213;-80
2022/11/28 07:46:16;;;;;;;5.20;4.70;;;;;14.90;100762.00;;;;5009829;28;20762;-79
2022/11/28 07:48:44;;;;;;;4.78;4.28;;;;;14.90;100768.00;;;;5018441;28;20204;-79
2022/11/28 07:51:14;;;;;;;5.55;4.45;;;;;14.90;100768.00;;;;5008397;28;20284;-79
2022/11/28 07:53:42;;;;;;;5.97;4.53;;;;;14.90;100767.00;;;;5012599;28;20196;-79
2022/11/28 07:56:12;;;;;;;7.47;4.70;;;;;14.90;100765.00;;;;5019117;28;20215;-79
2022/11/28 07:58:42;;;;;;;5.57;4.70;;;;;14.90;100764.00;;;;5011750;28;20217;-79
2022/11/28 08:01:10;;;;;;;8.50;4.78;;;;;14.90;100768.00;;;;5010303;28;20205;-79
2022/11/28 08:03:37;;;;;;;6.50;4.32;;;;;15.00;100768.00;;;;5014329;28;20197;-79
2022/11/28 08:06:06;;;;;;;7.40;4.38;;;;;15.00;100769.00;;;;5023051;28;20228;-80
2022/11/28 08:08:34;;;;;;;6.75;5.18;;;;;15.00;100763.00;;;;5012446;28;20197;-80
2022/11/28 08:11:03;;;;;;;6.60;4.82;;;;;15.00;100767.00;;;;5020989;28;20207;-80
2022/11/28 08:13:31;;;;;;;6.95;5.35;;;;;15.00;100763.00;;;;5008835;28;20196;-80
2022/11/28 08:16:05;;;;;;;8.05;5.80;;;;;14.90;100762.00;;;;5009393;28;20205;-80
2022/11/28 08:18:32;;;;;;;5.90;5.10;;;;;15.00;100758.00;;;;5013752;28;20215;-80
2022/11/28 08:21:04;;;;;;;6.95;5.30;;;;;15.00;100767.00;;;;5014855;28;20675;-80
2022/11/28 08:23:33;;;;;;;7.63;5.70;;;;;15.00;100770.00;;;;5012432;28;20196;-80
2022/11/28 08:26:01;;;;;;;6.47;5.20;;;;;15.00;100774.00;;;;5006885;28;20699;-80
2022/11/28 08:28:29;;;;;;;7.30;5.53;;;;;15.00;100779.00;;;;5010582;28;20673;-80
2022/11/28 08:30:56;;;;;;;6.28;5.03;;;;;15.00;100783.00;;;;5017784;28;20205;-80
2022/11/28 08:33:25;;;;;;;7.78;5.20;;;;;15.00;100778.00;;;;5016629;28;20192;-79
2022/11/28 08:35:52;;;;;;;6.97;5.18;;;;;15.10;100776.00;;;;5017194;28;20233;-79
2022/11/28 08:38:20;;;;;;;5.95;4.75;;;;;15.10;100790.00;;;;5012980;28;20212;-80
2022/11/28 08:40:47;;;;;;;7.35;5.85;;;;;15.10;100784.00;;;;5014453;28;20683;-80
2022/11/28 08:43:14;;;;;;;8.18;5.70;;;;;15.10;100781.00;;;;5013839;28;20200;-80
2022/11/28 08:45:41;;;;;;;6.80;5.25;;;;;15.10;100784.00;;;;5023230;28;20226;-79
2022/11/28 08:48:09;;;;;;;6.53;5.45;;;;;15.10;100793.00;;;;5009683;28;20574;-80
2022/11/28 08:50:39;;;;;;;8.82;5.35;;;;;15.10;100789.00;;;;5016465;28;20216;-79
2022/11/28 08:53:06;;;;;;;9.23;6.22;;;;;15.10;100787.00;;;;5017264;28;20200;-79
2022/11/28 08:55:33;;;;;;;6.78;5.35;;;;;15.10;100787.00;;;;5021176;28;20219;-79
2022/11/28 08:58:00;;;;;;;7.28;5.80;;;;;15.20;100791.00;;;;5027901;28;20740;-79
2022/11/28 09:00:28;;;;;;;6.75;5.13;;;;;15.20;100785.00;;;;5026262;28;20209;-79
2022/11/28 09:02:55;;;;;;;8.48;6.72;;;;;15.20;100792.00;;;;5010998;28;20208;-80
2022/11/28 09:05:22;;;;;;;8.13;6.45;;;;;15.20;100787.00;;;;5010885;28;20627;-79
2022/11/28 09:07:53;;;;;;;8.82;6.28;;;;;15.20;100796.00;;;;5012816;28;20714;-80
2022/11/28 09:10:21;;;;;;;7.80;4.97;;;;;15.20;100800.00;;;;5010345;28;20216;-79
2022/11/28 09:12:48;;;;;;;8.10;5.93;;;;;15.20;100795.00;;;;5011895;28;20209;-80
2022/11/28 09:15:16;;;;;;;8.98;6.60;;;;;15.20;100802.00;;;;5011287;28;20208;-79
2022/11/28 09:17:43;;;;;;;9.02;6.10;;;;;15.20;100790.00;;;;5011310;28;20510;-80
2022/11/28 09:20:12;;;;;;;8.63;6.70;;;;;15.20;100790.00;;;;5014104;28;20710;-80
2022/11/28 09:22:39;;;;;;;8.32;6.43;;;;;15.30;100787.00;;;;5020255;28;20196;-80
2022/11/28 09:25:09;;;;;;;7.32;6.18;;;;;15.30;100793.00;;;;5018509;28;20196;-80
2022/11/28 09:27:36;;;;;;;10.85;7.78;;;;;15.30;100798.00;;;;5029386;28;20720;-80
2022/11/28 09:30:04;;;;;;;10.48;7.25;;;;;15.30;100803.00;;;;5016108;28;20199;-80
2022/11/28 09:32:32;;;;;;;10.60;7.25;;;;;15.40;100802.00;;;;5010320;28;20574;-80
2022/11/28 09:34:59;;;;;;;10.70;7.35;;;;;15.40;100804.00;;;;5010669;28;20229;-80
2022/11/28 09:37:28;;;;;;;10.88;7.00;;;;;15.40;100804.00;;;;5017402;28;20686;-79
2022/11/28 09:39:56;;;;;;;11.15;8.52;;;;;15.40;100796.00;;;;5012000;28;20228;-80
2022/11/28 09:42:30;;;;;;;11.63;7.80;;;;;15.40;100811.00;;;;5011562;28;20207;-80
2022/11/28 09:45:01;;;;;;;11.65;7.45;;;;;15.40;100810.00;;;;5017646;28;20659;-81
2022/11/28 09:47:30;;;;;;;14.13;8.43;;;;;15.40;100812.00;;;;5013187;28;20362;-81
2022/11/28 09:50:02;;;;;;;11.85;7.95;;;;;15.40;100817.00;;;;5013249;28;20205;-82
2022/11/28 09:52:40;;;;;;;10.45;7.45;;;;;15.40;100806.00;;;;5015986;28;20199;-81
2022/11/28 09:55:17;;;;;;;12.77;8.73;;;;;15.40;100820.00;;;;5010164;28;20262;-80
2022/11/28 09:57:49;;;;;;;12.05;8.25;;;;;15.50;100816.00;;;;5013903;28;20220;-81
2022/11/28 10:00:20;;;;;;;12.10;8.20;;;;;15.50;100816.00;;;;5018020;28;20212;-79
2022/11/28 10:03:20;;;;;;;12.65;8.35;;;;;15.40;100821.00;;;;5008902;28;20577;-79
2022/11/28 10:06:00;;;;;;;15.15;9.80;;;;;15.50;100823.00;;;;4996784;28;20208;-79
2022/11/28 10:08:37;;;;;;;14.95;9.20;;;;;15.50;100822.00;;;;5020225;28;20655;-80
2022/11/28 10:11:11;;;;;;;14.80;9.23;;;;;15.50;100820.00;;;;5014707;28;20203;-80
2022/11/28 10:13:52;;;;;;;16.77;9.55;;;;;15.50;100824.00;;;;5013435;28;20216;-79
2022/11/28 10:16:26;;;;;;;13.48;8.60;;;;;15.50;100822.00;;;;5016228;28;20216;-80
2022/11/28 10:18:57;;;;;;;17.77;9.80;;;;;15.60;100815.00;;;;5015569;28;20200;-80
2022/11/28 10:21:30;;;;;;;16.67;9.00;;;;;15.50;100820.00;;;;5015205;28;20200;-81
2022/11/28 10:24:01;;;;;;;15.15;10.07;;;;;15.60;100824.00;;;;5010872;28;20193;-80
2022/11/28 10:26:35;;;;;;;14.85;9.23;;;;;15.60;100817.00;;;;5010007;28;20233;-80
2022/11/28 10:29:13;;;;;;;20.08;10.50;;;;;15.60;100808.00;;;;5012243;28;20196;-79
2022/11/28 10:31:44;;;;;;;17.77;11.10;;;;;15.60;100813.00;;;;5009663;28;20193;-80
2022/11/28 10:34:18;;;;;;;18.65;10.57;;;;;15.60;100812.00;;;;5008933;28;20596;-80
2022/11/28 10:36:55;;;;;;;15.85;9.93;;;;;15.60;100807.00;;;;5014297;28;20204;-79
2022/11/28 10:39:24;;;;;;;16.80;10.02;;;;;15.70;100804.00;;;;5019483;28;20192;-80
2022/11/28 10:42:11;;;;;;;21.63;10.93;;;;;15.70;100798.00;;;;5021759;28;20290;-80
2022/11/28 10:44:51;;;;;;;17.38;10.70;;;;;15.70;100810.00;;;;5015853;28;20693;-80
2022/11/28 10:47:39;;;;;;;17.27;9.70;;;;;15.70;100804.00;;;;5006902;28;20216;-80
2022/11/28 10:50:16;;;;;;;17.90;10.45;;;;;15.70;100805.00;;;;5011185;28;20200;-80
2022/11/28 10:52:48;;;;;;;17.40;10.25;;;;;15.80;100812.00;;;;5010446;28;20204;-80
2022/11/28 10:55:27;;;;;;;16.90;10.32;;;;;15.80;100806.00;;;;5016796;28;20201;-79
2022/11/28 10:58:07;;;;;;;17.75;9.45;;;;;15.80;100809.00;;;;5014095;28;20239;-81
2022/11/28 11:00:38;;;;;;;16.95;10.77;;;;;15.80;100801.00;;;;5010654;28;20197;-81
2022/11/28 11:03:05;;;;;;;16.10;10.30;;;;;15.90;100801.00;;;;5010503;28;20203;-82
2022/11/28 11:05:35;;;;;;;17.63;10.20;;;;;15.90;100802.00;;;;5011543;28;20254;-82
2022/11/28 11:08:12;;;;;;;17.42;10.07;;;;;15.90;100804.00;;;;5010866;28;20224;-82
2022/11/28 11:10:42;;;;;;;17.45;9.98;;;;;16.00;100804.00;;;;5011955;28;20295;-81
2022/11/28 11:13:15;;;;;;;16.67;9.75;;;;;16.00;100810.00;;;;5010402;28;20212;-81
2022/11/28 11:15:46;;;;;;;18.20;10.02;;;;;16.00;100821.00;;;;5015933;28;20201;-82
2022/11/28 11:18:25;;;;;;;15.60;10.10;;;;;16.00;100825.00;;;;5013434;28;20562;-81
2022/11/28 11:21:06;;;;;;;15.75;9.63;;;;;16.10;100822.00;;;;5010986;28;20197;-81
2022/11/28 11:23:33;;;;;;;13.63;9.40;;;;;16.10;100826.00;;;;5016222;28;20208;-81
2022/11/28 11:26:01;;;;;;;14.40;9.55;;;;;16.10;100832.00;;;;5017520;28;20708;-81
2022/11/28 11:28:41;;;;;;;12.40;8.57;;;;;16.10;100829.00;;;;5006928;28;20574;-81
2022/11/28 11:31:20;;;;;;;13.93;9.18;;;;;16.10;100829.00;;;;5007140;28;20197;-81
2022/11/28 11:33:49;;;;;;;13.73;8.90;;;;;16.20;100823.00;;;;5015486;28;20207;-80
2022/11/28 11:36:23;;;;;;;12.75;8.43;;;;;16.10;100825.00;;;;5014617;28;20205;-80
2022/11/28 11:38:51;;;;;;;11.75;8.90;;;;;16.20;100835.00;;;;5026729;28;20215;-81
2022/11/28 11:41:29;;;;;;;11.60;7.97;;;;;16.10;100828.00;;;;5008509;28;20197;-81
2022/11/28 11:43:57;;;;;;;12.20;8.27;;;;;16.30;100830.00;;;;5017547;28;20200;-80
2022/11/28 11:46:25;;;;;;;12.90;8.73;;;;;16.20;100826.00;;;;5015577;28;20207;-81
2022/11/28 11:48:53;;;;;;;14.05;9.30;;;;;16.20;100824.00;;;;5014163;28;20236;-81
2022/11/28 11:51:24;;;;;;;11.93;7.85;;;;;16.20;100839.00;;;;5007043;28;20683;-80
2022/11/28 11:54:02;;;;;;;11.98;7.90;;;;;16.20;100836.00;;;;5008151;28;20204;-80
2022/11/28 11:56:32;;;;;;;12.25;8.10;;;;;16.20;100830.00;;;;5007664;28;20215;-80
2022/11/28 11:59:03;;;;;;;11.77;8.40;;;;;16.20;100836.00;;;;5008039;28;20217;-81
2022/11/28 12:01:34;;;;;;;15.23;8.75;;;;;16.30;100839.00;;;;5006105;28;20198;-80
2022/11/28 12:04:06;;;;;;;11.48;8.63;;;;;16.30;100832.00;;;;5012691;28;20201;-80
2022/11/28 12:06:38;;;;;;;11.40;8.55;;;;;16.30;100838.00;;;;5020857;28;20201;-80
2022/11/28 12:09:16;;;;;;;13.50;8.90;;;;;16.30;100833.00;;;;5017275;28;20694;-80
2022/11/28 12:11:48;;;;;;;11.80;8.15;;;;;16.30;100838.00;;;;5026842;28;20785;-80
2022/11/28 12:14:29;;;;;;;14.13;9.02;;;;;16.30;100829.00;;;;5012395;28;20193;-80
2022/11/28 12:17:10;;;;;;;11.55;8.63;;;;;16.30;100828.00;;;;5017331;28;20702;-80
2022/11/28 12:19:48;;;;;;;13.18;8.95;;;;;16.40;100829.00;;;;5009316;28;20208;-80
2022/11/28 12:22:24;;;;;;;12.82;8.95;;;;;16.40;100831.00;;;;5012276;28;20197;-81
2022/11/28 12:25:03;;;;;;;13.48;9.48;;;;;16.40;100833.00;;;;5017402;28;20203;-80